createdAt,value
2018-06-04T00:02:21.167Z,18.87
2018-06-04T00:04:49.664Z,11.87
2018-06-04T00:07:18.189Z,12.80
2018-06-04T00:09:46.728Z,13.07
2018-06-04T00:12:15.277Z,12.13
2018-06-04T00:14:43.846Z,13.90
2018-06-04T00:17:12.483Z,12.67
2018-06-04T00:19:40.988Z,15.50
2018-06-04T00:22:09.536Z,13.93
2018-06-04T00:24:37.995Z,13.23
2018-06-04T00:27:06.505Z,15.63
2018-06-04T00:29:34.980Z,17.13
2018-06-04T00:32:03.638Z,15.90
2018-06-04T00:34:32.104Z,14.70
2018-06-04T00:37:00.617Z,14.93
2018-06-04T00:39:29.157Z,14.90
2018-06-04T00:41:57.636Z,14.97
2018-06-04T00:44:26.199Z,14.27
2018-06-04T00:46:54.719Z,15.53
2018-06-04T00:49:23.255Z,15.60
2018-06-04T00:51:51.735Z,18.10
2018-06-04T00:54:20.253Z,18.40
2018-06-04T00:56:48.737Z,16.93
2018-06-04T00:59:17.277Z,18.03
2018-06-04T01:01:45.736Z,21.47
2018-06-04T01:04:14.285Z,21.03
2018-06-04T01:06:42.797Z,18.33
2018-06-04T01:09:11.431Z,21.53
2018-06-04T01:11:39.933Z,22.37
2018-06-04T01:14:08.442Z,22.03
2018-06-04T01:16:36.956Z,21.03
2018-06-04T01:19:05.470Z,18.90
2018-06-04T01:21:34.037Z,21.03
2018-06-04T01:24:02.774Z,21.73
2018-06-04T01:26:31.003Z,20.20
2018-06-04T01:28:59.430Z,19.43
2018-06-04T01:31:27.875Z,18.40
2018-06-04T01:33:56.965Z,23.30
2018-06-04T01:36:25.481Z,23.73
2018-06-04T01:38:53.996Z,19.60
2018-06-04T01:41:22.518Z,20.20
2018-06-04T01:43:51.014Z,22.63
2018-06-04T01:46:19.528Z,20.60
2018-06-04T01:48:48.007Z,27.77
2018-06-04T01:51:16.577Z,26.63
2018-06-04T01:53:45.092Z,27.57
2018-06-04T01:56:13.596Z,31.27
2018-06-04T01:58:42.057Z,31.40
2018-06-04T02:01:10.520Z,31.50
2018-06-04T02:03:38.968Z,35.07
2018-06-04T02:06:07.410Z,34.27
2018-06-04T02:08:35.853Z,35.40
2018-06-04T02:11:04.364Z,37.80
2018-06-04T02:13:32.812Z,38.80
2018-06-04T02:16:01.257Z,39.37
2018-06-04T02:18:29.730Z,43.53
2018-06-04T02:20:58.217Z,43.90
2018-06-04T02:23:26.648Z,41.80
2018-06-04T02:25:55.046Z,44.57
2018-06-04T02:28:23.527Z,46.87
2018-06-04T02:30:51.987Z,48.67
2018-06-04T02:33:20.540Z,47.10
2018-06-04T02:35:48.984Z,46.53
2018-06-04T02:38:17.458Z,46.77
2018-06-04T02:40:45.875Z,48.37
2018-06-04T02:43:14.387Z,49.07
2018-06-04T02:45:42.852Z,44.27
2018-06-04T02:48:11.316Z,44.03
2018-06-04T02:50:39.804Z,50.10
2018-06-04T02:53:08.345Z,51.57
2018-06-04T02:55:36.829Z,47.23
2018-06-04T02:58:05.265Z,46.57
2018-06-04T03:00:33.788Z,49.80
2018-06-04T03:03:02.222Z,50.83
2018-06-04T03:05:30.706Z,46.20
2018-06-04T03:07:59.191Z,47.47
2018-06-04T03:10:27.782Z,44.93
2018-06-04T03:12:56.301Z,46.77
2018-06-04T03:15:24.863Z,50.03
2018-06-04T03:17:53.285Z,48.10
2018-06-04T03:20:21.737Z,47.70
2018-06-04T03:22:50.184Z,44.70
2018-06-04T03:25:18.701Z,45.27
2018-06-04T03:27:47.180Z,44.67
2018-06-04T03:30:15.655Z,43.37
2018-06-04T03:32:44.104Z,46.63
2018-06-04T03:35:12.552Z,44.93
2018-06-04T03:37:41.029Z,45.17
2018-06-04T03:40:09.506Z,44.63
2018-06-04T03:42:37.971Z,51.40
2018-06-04T03:45:06.405Z,50.00
2018-06-04T03:47:34.871Z,47.90
2018-06-04T03:50:03.363Z,48.60
2018-06-04T03:52:31.831Z,46.50
2018-06-04T03:55:00.272Z,45.73
2018-06-04T03:57:28.738Z,47.73
2018-06-04T03:59:57.215Z,40.20
2018-06-04T04:02:25.722Z,43.73
2018-06-04T04:04:54.150Z,43.30
2018-06-04T04:07:22.615Z,42.70
2018-06-04T04:09:51.098Z,45.00
2018-06-04T04:12:19.605Z,47.03
2018-06-04T04:14:48.951Z,40.73
2018-06-04T04:17:17.495Z,43.43
2018-06-04T04:19:45.946Z,43.27
2018-06-04T04:22:14.463Z,42.77
2018-06-04T04:24:42.972Z,38.60
2018-06-04T04:27:11.447Z,42.83
2018-06-04T04:29:39.898Z,42.33
2018-06-04T04:32:08.405Z,41.67
2018-06-04T04:34:37.480Z,43.47
2018-06-04T04:37:06.033Z,42.90
2018-06-04T04:39:35.033Z,41.30
2018-06-04T04:42:03.737Z,39.57
2018-06-04T04:44:32.565Z,43.43
2018-06-04T04:47:01.039Z,46.60
2018-06-04T04:49:29.487Z,40.53
2018-06-04T04:51:57.953Z,41.43
2018-06-04T04:54:26.463Z,43.17
2018-06-04T04:56:55.436Z,37.77
2018-06-04T04:59:23.938Z,40.97
2018-06-04T05:01:53.122Z,39.27
2018-06-04T05:04:23.311Z,37.27
2018-06-04T05:06:51.740Z,39.93
2018-06-04T05:09:20.252Z,41.10
2018-06-04T05:11:48.693Z,35.87
2018-06-04T05:14:17.263Z,36.43
2018-06-04T05:16:45.688Z,41.20
2018-06-04T05:19:14.192Z,41.27
2018-06-04T05:21:42.665Z,39.90
2018-06-04T05:24:11.150Z,33.57
2018-06-04T05:26:39.636Z,36.20
2018-06-04T05:29:08.104Z,36.23
2018-06-04T05:31:36.600Z,38.23
2018-06-04T05:34:05.124Z,34.97
2018-06-04T05:36:33.687Z,38.03
2018-06-04T05:39:02.167Z,33.53
2018-06-04T05:41:30.661Z,31.80
2018-06-04T05:43:59.117Z,36.73
2018-06-04T05:46:27.649Z,35.77
2018-06-04T05:48:56.154Z,34.53
2018-06-04T05:51:24.655Z,33.53
2018-06-04T05:53:53.170Z,31.23
2018-06-04T05:56:21.653Z,31.67
2018-06-04T05:58:50.081Z,34.83
2018-06-04T06:01:18.555Z,30.27
2018-06-04T06:03:47.014Z,24.20
2018-06-04T06:06:15.488Z,30.10
2018-06-04T06:08:43.944Z,31.13
2018-06-04T06:11:12.481Z,28.43
2018-06-04T06:13:41.002Z,27.67
2018-06-04T06:16:09.463Z,24.10
2018-06-04T06:18:37.934Z,26.87
2018-06-04T06:21:06.604Z,26.77
2018-06-04T06:23:35.053Z,26.90
2018-06-04T06:26:03.534Z,26.37
2018-06-04T06:28:32.070Z,24.60
2018-06-04T06:31:00.542Z,22.60
2018-06-04T06:33:29.043Z,20.40
2018-06-04T06:35:57.487Z,18.10
2018-06-04T06:38:25.968Z,21.37
2018-06-04T06:40:54.439Z,21.73
2018-06-04T06:43:22.919Z,17.27
2018-06-04T06:45:51.457Z,18.77
2018-06-04T06:48:19.905Z,19.97
2018-06-04T06:50:48.402Z,18.70
2018-06-04T06:53:16.880Z,17.90
2018-06-04T06:55:45.397Z,17.83
2018-06-04T06:58:13.839Z,20.10
2018-06-04T07:00:42.295Z,18.50
2018-06-04T07:03:10.760Z,17.93
2018-06-04T07:05:39.254Z,21.53
2018-06-04T07:08:07.723Z,24.70
2018-06-04T07:10:36.244Z,21.57
2018-06-04T07:13:04.725Z,23.93
2018-06-04T07:15:33.178Z,20.43
2018-06-04T07:18:01.668Z,26.97
2018-06-04T07:20:30.108Z,23.87
2018-06-04T07:22:58.618Z,24.07
2018-06-04T07:25:27.133Z,25.93
2018-06-04T07:27:55.672Z,31.63
2018-06-04T07:30:24.146Z,25.17
2018-06-04T07:32:52.838Z,23.53
2018-06-04T07:35:21.349Z,22.67
2018-06-04T07:37:49.805Z,20.60
2018-06-04T07:40:18.334Z,17.97
2018-06-04T07:42:46.766Z,23.10
2018-06-04T07:45:15.263Z,21.80
2018-06-04T07:47:43.740Z,23.53
2018-06-04T07:50:16.427Z,22.97
2018-06-04T07:52:45.232Z,33.63
2018-06-04T07:55:13.756Z,28.33
2018-06-04T07:57:42.275Z,27.30
2018-06-04T08:00:10.771Z,26.07
2018-06-04T08:02:39.292Z,30.30
2018-06-04T08:05:08.055Z,27.67
2018-06-04T08:07:36.564Z,23.03
2018-06-04T08:10:05.295Z,26.60
2018-06-04T08:12:33.767Z,23.80
2018-06-04T08:15:02.245Z,25.50
2018-06-04T08:17:30.742Z,24.73
2018-06-04T08:19:59.303Z,26.47
2018-06-04T08:22:27.825Z,23.13
2018-06-04T08:24:56.303Z,27.60
2018-06-04T08:27:24.836Z,25.60
2018-06-04T08:29:54.762Z,25.20
2018-06-04T08:32:23.302Z,25.80
2018-06-04T08:34:51.753Z,22.30
2018-06-04T08:37:20.219Z,22.50
2018-06-04T08:39:48.691Z,23.50
2018-06-04T08:42:17.321Z,23.00
2018-06-04T08:44:45.845Z,22.70
2018-06-04T08:47:14.330Z,21.73
2018-06-04T08:49:42.832Z,25.40
2018-06-04T08:52:11.307Z,23.93
2018-06-04T08:54:39.804Z,21.30
2018-06-04T08:57:08.312Z,22.70
2018-06-04T08:59:36.832Z,18.17
2018-06-04T09:02:05.327Z,14.60
2018-06-04T09:04:33.839Z,16.47
2018-06-04T09:07:02.277Z,15.20
2018-06-04T09:09:30.791Z,13.23
2018-06-04T09:11:59.265Z,10.63
2018-06-04T09:14:27.762Z,11.27
2018-06-04T09:16:56.263Z,11.67
2018-06-04T09:19:24.860Z,9.50
2018-06-04T09:21:53.322Z,13.70
2018-06-04T09:24:21.771Z,12.20
2018-06-04T09:26:50.253Z,9.87
2018-06-04T09:29:18.726Z,9.93
2018-06-04T09:31:47.182Z,11.27
2018-06-04T09:34:15.655Z,11.97
2018-06-04T09:36:44.166Z,11.57
2018-06-04T09:39:12.588Z,11.70
2018-06-04T09:41:41.118Z,12.40
2018-06-04T09:44:09.638Z,13.60
2018-06-04T09:46:38.062Z,12.83
2018-06-04T09:49:12.924Z,13.47
2018-06-04T09:51:41.440Z,13.77
2018-06-04T09:54:10.337Z,12.67
2018-06-04T09:56:38.881Z,12.17
2018-06-04T09:59:07.372Z,12.70
2018-06-04T10:01:35.876Z,12.50
2018-06-04T10:04:04.322Z,11.40
2018-06-04T10:06:32.837Z,11.93
2018-06-04T10:09:01.338Z,12.80
2018-06-04T10:11:29.809Z,13.63
2018-06-04T10:13:58.301Z,12.17
2018-06-04T10:16:26.746Z,11.60
2018-06-04T10:18:55.226Z,12.13
2018-06-04T10:21:23.703Z,11.70
2018-06-04T10:23:52.215Z,12.77
2018-06-04T10:26:20.667Z,13.03
2018-06-04T10:28:49.205Z,13.43
2018-06-04T10:31:17.650Z,12.37
2018-06-04T10:33:46.352Z,13.73
2018-06-04T10:36:14.795Z,14.80
2018-06-04T10:38:43.255Z,12.50
2018-06-04T10:41:11.849Z,12.77
2018-06-04T10:43:40.328Z,11.40
2018-06-04T10:46:08.856Z,11.17
2018-06-04T10:48:37.360Z,11.67
2018-06-04T10:51:05.846Z,11.47
2018-06-04T10:53:34.339Z,11.27
2018-06-04T10:56:02.791Z,10.63
2018-06-04T10:58:31.276Z,9.97
2018-06-04T11:00:59.742Z,9.47
2018-06-04T11:03:28.182Z,10.17
2018-06-04T11:05:56.622Z,9.73
2018-06-04T11:08:25.106Z,8.93
2018-06-04T11:10:53.683Z,10.03
2018-06-04T11:13:22.157Z,9.60
2018-06-04T11:15:50.651Z,9.43
2018-06-04T11:18:19.126Z,10.07
2018-06-04T11:20:47.618Z,9.30
2018-06-04T11:23:16.077Z,9.27
2018-06-04T11:25:44.579Z,9.73
2018-06-04T11:28:13.014Z,9.20
2018-06-04T11:30:41.496Z,8.60
2018-06-04T11:33:10.011Z,10.00
2018-06-04T11:35:38.494Z,10.30
2018-06-04T11:38:06.652Z,10.97
2018-06-04T11:40:35.133Z,9.73
2018-06-04T11:43:03.578Z,10.50
2018-06-04T11:45:32.023Z,10.47
2018-06-04T11:48:00.469Z,10.40
2018-06-04T11:50:28.947Z,9.47
2018-06-04T11:52:57.428Z,10.43
2018-06-04T11:55:25.875Z,10.07
2018-06-04T11:57:54.360Z,8.93
2018-06-04T12:00:22.800Z,9.43
2018-06-04T12:02:51.280Z,9.13
2018-06-04T12:05:19.726Z,8.93
2018-06-04T12:07:48.175Z,9.57
2018-06-04T12:10:16.666Z,9.30
2018-06-04T12:12:45.138Z,8.47
2018-06-04T12:15:13.540Z,7.90
2018-06-04T12:17:41.999Z,8.60
2018-06-04T12:20:10.428Z,8.40
2018-06-04T12:22:38.873Z,8.67
2018-06-04T12:25:07.292Z,8.80
2018-06-04T12:27:35.737Z,8.97
2018-06-04T12:30:04.321Z,8.23
2018-06-04T12:32:32.771Z,7.93
2018-06-04T12:35:01.241Z,8.13
2018-06-04T12:37:29.681Z,7.30
2018-06-04T12:39:58.134Z,7.50
2018-06-04T12:42:26.701Z,6.90
2018-06-04T12:44:55.268Z,8.10
2018-06-04T12:47:23.765Z,7.70
2018-06-04T12:49:52.222Z,7.77
2018-06-04T12:52:20.690Z,8.20
2018-06-04T12:54:49.148Z,7.57
2018-06-04T12:57:17.610Z,8.10
2018-06-04T12:59:46.165Z,7.97
2018-06-04T13:02:14.616Z,8.10
2018-06-04T13:04:43.354Z,9.40
2018-06-04T13:07:11.745Z,8.33
2018-06-04T13:09:40.207Z,8.03
2018-06-04T13:12:08.698Z,8.57
2018-06-04T13:14:37.280Z,9.13
2018-06-04T13:17:05.731Z,8.80
2018-06-04T13:19:34.177Z,8.53
2018-06-04T13:22:02.757Z,9.20
2018-06-04T13:24:31.273Z,7.60
2018-06-04T13:26:59.740Z,8.43
2018-06-04T13:29:28.228Z,7.87
2018-06-04T13:31:56.728Z,7.90
2018-06-04T13:34:25.169Z,9.17
2018-06-04T13:36:53.653Z,7.83
2018-06-04T13:39:22.199Z,7.83
2018-06-04T13:41:50.604Z,8.00
2018-06-04T13:44:19.115Z,7.80
2018-06-04T13:46:47.582Z,7.87
2018-06-04T13:49:16.023Z,6.67
2018-06-04T13:51:46.114Z,6.47
2018-06-04T13:54:15.500Z,7.17
2018-06-04T13:56:43.978Z,7.57
2018-06-04T13:59:12.634Z,7.20
2018-06-04T14:01:41.188Z,7.67
2018-06-04T14:04:10.388Z,7.00
2018-06-04T14:06:38.895Z,7.20
2018-06-04T14:09:08.333Z,7.17
2018-06-04T14:11:36.859Z,6.67
2018-06-04T14:14:05.317Z,7.80
2018-06-04T14:16:33.861Z,8.17
2018-06-04T14:19:02.292Z,7.80
2018-06-04T14:21:30.751Z,8.03
2018-06-04T14:23:59.231Z,11.57
2018-06-04T14:26:27.684Z,8.50
2018-06-04T14:28:56.178Z,7.87
2018-06-04T14:31:24.645Z,8.33
2018-06-04T14:33:53.119Z,7.97
2018-06-04T14:36:22.458Z,7.93
2018-06-04T14:38:50.616Z,8.67
2018-06-04T14:41:19.070Z,8.70
2018-06-04T14:43:47.515Z,9.30
2018-06-04T14:46:16.001Z,9.27
2018-06-04T14:48:44.478Z,11.03
2018-06-04T14:51:12.632Z,11.47
2018-06-04T14:53:41.076Z,9.97
2018-06-04T14:56:09.512Z,9.27
2018-06-04T14:58:37.998Z,9.33
2018-06-04T15:01:06.646Z,10.27
2018-06-04T15:03:35.118Z,9.50
2018-06-04T15:06:03.542Z,8.67
2018-06-04T15:08:32.118Z,9.53
2018-06-04T15:11:01.052Z,9.17
2018-06-04T15:13:29.289Z,9.27
2018-06-04T15:15:58.185Z,9.63
2018-06-04T15:18:26.636Z,8.97
2018-06-04T15:20:55.100Z,10.37
2018-06-04T15:23:23.784Z,9.70
2018-06-04T15:25:52.244Z,9.83
2018-06-04T15:28:20.763Z,9.27
2018-06-04T15:30:49.266Z,10.30
2018-06-04T15:33:17.834Z,11.47
2018-06-04T15:35:46.400Z,10.20
2018-06-04T15:38:14.854Z,10.93
2018-06-04T15:40:43.448Z,12.43
2018-06-04T15:43:12.086Z,11.10
2018-06-04T15:45:40.608Z,10.23
2018-06-04T15:48:09.061Z,12.40
2018-06-04T15:50:37.513Z,10.80
2018-06-04T15:53:05.982Z,11.60
2018-06-04T15:55:34.589Z,11.10
2018-06-04T15:58:03.048Z,10.43
2018-06-04T16:00:31.602Z,12.17
2018-06-04T16:03:00.055Z,12.80
2018-06-04T16:05:28.522Z,13.70
2018-06-04T16:07:56.972Z,13.13
2018-06-04T16:10:25.556Z,12.00
2018-06-04T16:12:54.062Z,13.57
2018-06-04T16:15:22.508Z,14.47
2018-06-04T16:17:50.990Z,16.10
2018-06-04T16:20:19.476Z,16.23
2018-06-04T16:22:47.955Z,12.77
2018-06-04T16:25:16.395Z,16.57
2018-06-04T16:27:44.870Z,14.57
2018-06-04T16:30:13.420Z,17.37
2018-06-04T16:32:41.868Z,13.27
2018-06-04T16:35:10.319Z,15.20
2018-06-04T16:37:38.814Z,14.13
2018-06-04T16:40:07.249Z,14.13
2018-06-04T16:42:35.734Z,13.10
2018-06-04T16:45:03.924Z,12.97
2018-06-04T16:47:32.405Z,13.37
2018-06-04T16:50:00.840Z,14.23
2018-06-04T16:52:29.337Z,15.13
2018-06-04T16:54:57.802Z,13.03
2018-06-04T16:57:26.329Z,13.40
2018-06-04T16:59:54.750Z,14.83
2018-06-04T17:02:23.286Z,20.43
2018-06-04T17:04:51.772Z,15.97
2018-06-04T17:07:20.203Z,17.37
2018-06-04T17:09:48.688Z,18.30
2018-06-04T17:12:17.192Z,14.83
2018-06-04T17:14:45.667Z,17.77
2018-06-04T17:17:14.128Z,16.23
2018-06-04T17:19:42.593Z,16.97
2018-06-04T17:22:11.068Z,14.47
2018-06-04T17:24:39.515Z,15.63
2018-06-04T17:27:07.978Z,17.10
2018-06-04T17:29:36.439Z,18.20
2018-06-04T17:32:04.927Z,15.93
2018-06-04T17:34:33.431Z,16.57
2018-06-04T17:37:01.942Z,20.87
2018-06-04T17:39:30.430Z,15.60
2018-06-04T17:41:58.916Z,15.13
2018-06-04T17:44:27.347Z,15.87
2018-06-04T17:46:55.875Z,14.33
2018-06-04T17:49:24.357Z,14.63
2018-06-04T17:51:52.826Z,13.10
2018-06-04T17:54:21.246Z,13.73
2018-06-04T17:56:49.729Z,13.33
2018-06-04T17:59:18.205Z,13.03
2018-06-04T18:01:47.055Z,13.87
2018-06-04T18:04:15.478Z,12.10
2018-06-04T18:06:43.998Z,13.00
2018-06-04T18:09:12.463Z,12.90
2018-06-04T18:11:41.171Z,12.27
2018-06-04T18:14:09.609Z,11.27
2018-06-04T18:16:38.087Z,13.50
2018-06-04T18:19:06.551Z,10.70
2018-06-04T18:21:35.016Z,13.87
2018-06-04T18:24:03.520Z,10.70
2018-06-04T18:26:31.993Z,11.07
2018-06-04T18:29:00.439Z,10.17
2018-06-04T18:31:28.958Z,11.57
2018-06-04T18:33:57.381Z,9.40
2018-06-04T18:36:25.827Z,10.37
2018-06-04T18:38:54.310Z,9.57
2018-06-04T18:41:22.797Z,8.63
2018-06-04T18:43:51.228Z,9.03
2018-06-04T18:46:19.750Z,9.00
2018-06-04T18:48:48.222Z,9.07
2018-06-04T18:51:16.794Z,9.67
2018-06-04T18:53:45.240Z,10.03
2018-06-04T18:56:13.664Z,10.73
2018-06-04T18:58:42.303Z,12.80
2018-06-04T19:01:10.883Z,11.83
2018-06-04T19:03:39.336Z,9.87
2018-06-04T19:06:07.863Z,10.90
2018-06-04T19:08:36.339Z,11.77
2018-06-04T19:11:04.841Z,11.97
2018-06-04T19:13:33.330Z,12.60
2018-06-04T19:16:01.786Z,11.77
2018-06-04T19:18:30.284Z,11.33
2018-06-04T19:20:58.723Z,10.93
2018-06-04T19:23:27.168Z,11.73
2018-06-04T19:25:55.647Z,10.87
2018-06-04T19:28:24.134Z,10.17
2018-06-04T19:30:52.669Z,10.57
2018-06-04T19:33:21.148Z,11.63
2018-06-04T19:35:49.595Z,10.57
2018-06-04T19:38:18.077Z,11.77
2018-06-04T19:40:47.452Z,11.73
2018-06-04T19:43:15.924Z,10.93
2018-06-04T19:45:44.373Z,10.77
2018-06-04T19:48:12.800Z,10.23
2018-06-04T19:50:48.423Z,15.63
2018-06-04T19:53:16.837Z,13.37
2018-06-04T19:55:45.291Z,10.67
2018-06-04T19:58:13.750Z,13.40
2018-06-04T20:00:42.252Z,11.93
2018-06-04T20:03:10.739Z,10.97
2018-06-04T20:05:39.562Z,12.03
2018-06-04T20:08:08.088Z,11.53
2018-06-04T20:10:36.586Z,12.77
2018-06-04T20:13:05.091Z,12.03
2018-06-04T20:15:33.517Z,13.27
2018-06-04T20:18:01.971Z,11.80
2018-06-04T20:20:30.443Z,14.50
2018-06-04T20:22:58.902Z,11.63
2018-06-04T20:25:27.388Z,14.53
2018-06-04T20:27:57.492Z,12.27
2018-06-04T20:30:26.012Z,13.07
2018-06-04T20:32:54.643Z,11.87
2018-06-04T20:35:23.138Z,13.60
2018-06-04T20:37:51.700Z,15.50
2018-06-04T20:40:20.177Z,16.93
2018-06-04T20:42:48.728Z,17.37
2018-06-04T20:45:17.204Z,12.13
2018-06-04T20:47:45.718Z,12.43
2018-06-04T20:50:14.196Z,18.20
2018-06-04T20:52:42.806Z,16.50
2018-06-04T20:55:11.242Z,17.30
2018-06-04T20:57:39.731Z,16.10
2018-06-04T21:00:08.313Z,18.53
2018-06-04T21:02:36.805Z,17.80
2018-06-04T21:05:05.436Z,16.63
2018-06-04T21:07:33.882Z,16.03
2018-06-04T21:10:02.413Z,16.27
2018-06-04T21:12:30.946Z,14.60
2018-06-04T21:14:59.450Z,16.77
2018-06-04T21:17:27.936Z,13.47
2018-06-04T21:19:56.409Z,22.17
2018-06-04T21:22:24.895Z,18.30
2018-06-04T21:24:53.373Z,16.47
2018-06-04T21:27:21.822Z,21.80
2018-06-04T21:29:50.351Z,14.40
2018-06-04T21:32:18.840Z,19.40
2018-06-04T21:34:47.345Z,17.80
2018-06-04T21:37:15.783Z,14.90
2018-06-04T21:39:44.317Z,16.83
2018-06-04T21:42:12.910Z,21.23
2018-06-04T21:44:41.421Z,19.30
2018-06-04T21:47:09.897Z,20.00
2018-06-04T21:49:38.374Z,18.47
2018-06-04T21:52:06.941Z,17.30
2018-06-04T21:54:35.452Z,18.87
2018-06-04T21:57:04.333Z,18.73
2018-06-04T21:59:32.568Z,20.27
2018-06-04T22:02:01.178Z,17.93
2018-06-04T22:04:29.884Z,17.07
2018-06-04T22:06:58.374Z,15.73
2018-06-04T22:09:26.956Z,20.67
2018-06-04T22:11:55.495Z,24.57
2018-06-04T22:14:23.978Z,17.40
2018-06-04T22:16:53.934Z,21.47
2018-06-04T22:19:26.205Z,19.57
2018-06-04T22:21:54.852Z,22.57
2018-06-04T22:24:25.160Z,20.87
2018-06-04T22:26:54.185Z,17.33
2018-06-04T22:29:23.108Z,17.10
2018-06-04T22:31:51.877Z,20.90
2018-06-04T22:34:21.343Z,17.67
2018-06-04T22:36:49.886Z,20.67
2018-06-04T22:39:18.627Z,20.80
2018-06-04T22:41:47.348Z,23.97
2018-06-04T22:44:15.954Z,26.13
2018-06-04T22:46:44.566Z,21.13
2018-06-04T22:49:13.088Z,19.90
2018-06-04T22:51:41.624Z,22.80
2018-06-04T22:54:10.144Z,21.03
2018-06-04T22:56:38.636Z,22.90
2018-06-04T22:59:07.109Z,23.57
2018-06-04T23:01:35.632Z,21.03
2018-06-04T23:04:04.116Z,21.63
2018-06-04T23:06:32.616Z,23.00
2018-06-04T23:09:01.451Z,21.30
2018-06-04T23:11:30.541Z,22.97
2018-06-04T23:13:59.014Z,25.53
2018-06-04T23:16:27.515Z,27.23
2018-06-04T23:18:56.074Z,22.77
2018-06-04T23:21:24.526Z,27.70
2018-06-04T23:23:53.016Z,26.37
2018-06-04T23:26:21.555Z,27.43
2018-06-04T23:28:50.291Z,26.17
2018-06-04T23:31:18.880Z,26.67
2018-06-04T23:33:47.431Z,24.90
2018-06-04T23:36:16.762Z,19.43
2018-06-04T23:38:45.182Z,28.20
2018-06-04T23:41:13.801Z,21.20
2018-06-04T23:43:42.693Z,25.77
2018-06-04T23:46:11.380Z,21.93
2018-06-04T23:48:40.016Z,26.33
2018-06-04T23:51:08.675Z,24.00
2018-06-04T23:53:37.230Z,27.83
2018-06-04T23:56:05.682Z,20.60
2018-06-04T23:58:34.232Z,19.57
